Time;durP1;ratioP1;P1;durP2;ratioP2;P2;SDS_P1;SDS_P2;PMS_P1;PMS_P2;Temp;Humidity;BMP_temperature;BMP_pressure;BME280_temperature;BME280_humidity;BME280_pressure;Samples;Min_cycle;Max_cycle;Signal;HPM_P1;HPM_P2
2020/12/01 00:00:15;;;;;;;74.00;33.85;;;;;;;0.04;92.57;100585.72;5098578;28;20327;-83
2020/12/01 00:02:42;;;;;;;70.60;32.97;;;;;;;0.05;93.26;100573.59;5096649;28;20113;-78
2020/12/01 00:05:09;;;;;;;77.38;34.97;;;;;;;0.08;92.92;100571.84;5094823;28;20482;-80
2020/12/01 00:07:36;;;;;;;76.95;35.88;;;;;;;0.09;92.97;100563.16;5092089;28;20056;-81
2020/12/01 00:10:07;;;;;;;76.60;34.10;;;;;;;0.07;93.43;100561.44;5097232;28;20131;-80
2020/12/01 00:12:35;;;;;;;78.03;34.47;;;;;;;0.09;93.47;100555.34;5090426;28;20109;-80
2020/12/01 00:15:02;;;;;;;81.05;35.70;;;;;;;0.08;94.13;100551.03;5095897;28;20099;-78
2020/12/01 00:17:28;;;;;;;79.25;35.65;;;;;;;0.05;94.14;100540.59;5095779;28;20052;-79
2020/12/01 00:19:55;;;;;;;84.45;35.90;;;;;;;0.06;94.11;100541.47;5098358;28;20050;-81
2020/12/01 00:22:21;;;;;;;86.47;36.95;;;;;;;0.05;94.16;100538.00;5104201;28;20074;-79
2020/12/01 00:24:47;;;;;;;81.95;35.35;;;;;;;0.05;94.26;100538.00;5106092;28;20108;-82
2020/12/01 00:27:14;;;;;;;81.20;35.63;;;;;;;0.16;94.09;100531.03;5108667;28;20056;-77
2020/12/01 00:29:42;;;;;;;76.57;34.35;;;;;;;0.22;94.07;100524.94;5101460;28;20108;-78
2020/12/01 00:32:08;;;;;;;79.18;34.05;;;;;;;0.16;93.50;100522.38;5092093;28;20112;-80
2020/12/01 00:34:35;;;;;;;76.63;34.35;;;;;;;0.12;94.18;100521.50;5079619;28;20047;-78
2020/12/01 00:37:04;;;;;;;75.90;34.70;;;;;;;0.06;93.88;100508.50;5088569;28;20052;-82
2020/12/01 00:39:30;;;;;;;78.47;34.80;;;;;;;0.12;94.27;100507.63;5093923;28;20052;-79
2020/12/01 00:41:57;;;;;;;83.88;36.30;;;;;;;0.14;94.61;100505.88;5096261;28;20203;-77
2020/12/01 00:44:23;;;;;;;79.65;34.78;;;;;;;0.15;94.88;100499.81;5092332;28;20079;-77
2020/12/01 00:46:50;;;;;;;81.25;35.40;;;;;;;0.14;94.86;100496.34;5090312;28;20150;-79
2020/12/01 00:49:17;;;;;;;90.60;36.47;;;;;;;0.15;94.73;100492.88;5105193;28;20055;-78
2020/12/01 00:51:47;;;;;;;80.55;35.90;;;;;;;0.15;94.48;100489.41;5096495;28;20116;-81
2020/12/01 00:54:13;;;;;;;81.20;36.42;;;;;;;0.17;94.58;100487.63;5093340;28;20044;-78
2020/12/01 00:56:40;;;;;;;82.53;35.65;;;;;;;0.17;95.00;100487.63;5105228;28;20078;-78
2020/12/01 00:59:06;;;;;;;82.57;35.13;;;;;;;0.17;94.17;100472.00;5096690;28;20063;-78
2020/12/01 01:01:33;;;;;;;87.82;37.60;;;;;;;0.19;94.48;100478.94;5093590;28;20047;-79
2020/12/01 01:03:59;;;;;;;84.10;35.42;;;;;;;0.25;94.82;100476.31;5086969;28;20047;-79
2020/12/01 01:06:25;;;;;;;81.95;35.72;;;;;;;0.26;94.78;100479.78;5073201;28;20377;-78
2020/12/01 01:08:52;;;;;;;78.43;35.83;;;;;;;0.31;94.39;100476.31;5093081;28;20055;-77
2020/12/01 01:11:26;;;;;;;77.00;34.92;;;;;;;0.29;94.09;100477.19;5085370;28;20045;-77
2020/12/01 01:13:53;;;;;;;72.20;32.85;;;;;;;0.29;94.54;100472.84;5082667;28;20113;-79
2020/12/01 01:16:22;;;;;;;76.80;33.72;;;;;;;0.31;94.29;100465.91;5083841;28;20040;-79
2020/12/01 01:18:49;;;;;;;77.97;34.05;;;;;;;0.33;94.19;100468.47;5100054;28;20116;-81
2020/12/01 01:21:16;;;;;;;81.68;36.20;;;;;;;0.34;94.49;100450.22;5104882;28;20064;-82
2020/12/01 01:23:42;;;;;;;81.78;34.78;;;;;;;0.29;94.27;100443.31;5096255;28;20117;-77
2020/12/01 01:26:08;;;;;;;75.30;32.97;;;;;;;0.32;94.40;100446.75;5086984;28;20050;-79
2020/12/01 01:28:35;;;;;;;79.22;35.97;;;;;;;0.32;94.30;100451.97;5077976;28;20506;-78
2020/12/01 01:31:01;;;;;;;77.47;34.67;;;;;;;0.29;94.66;100438.13;5085780;28;20044;-81
2020/12/01 01:33:27;;;;;;;76.60;33.45;;;;;;;0.32;94.38;100451.09;5097599;28;20052;-81
2020/12/01 01:35:54;;;;;;;74.78;34.20;;;;;;;0.34;94.88;100442.41;5099390;28;20054;-78
2020/12/01 01:38:21;;;;;;;75.85;32.67;;;;;;;0.35;93.99;100435.47;5087837;28;20056;-79
2020/12/01 01:40:47;;;;;;;78.10;34.63;;;;;;;0.40;94.21;100436.31;5095718;28;20131;-83
2020/12/01 01:43:13;;;;;;;66.32;32.72;;;;;;;0.37;94.33;100423.31;5094125;28;20050;-78
2020/12/01 01:45:40;;;;;;;73.80;33.58;;;;;;;0.38;93.92;100424.16;5093863;28;20044;-78
2020/12/01 01:48:15;;;;;;;78.78;34.17;;;;;;;0.39;94.17;100425.91;5079844;28;20186;-77
2020/12/01 01:50:48;;;;;;;78.00;34.30;;;;;;;0.40;94.14;100427.63;5097579;28;20441;-79
2020/12/01 01:53:14;;;;;;;71.55;32.42;;;;;;;0.45;94.44;100424.13;5100975;28;20115;-78
2020/12/01 01:55:42;;;;;;;73.72;33.10;;;;;;;0.51;94.70;100423.22;5108272;28;20108;-77
2020/12/01 01:58:11;;;;;;;74.25;33.25;;;;;;;0.55;94.07;100424.94;5106953;28;20055;-77
2020/12/01 02:00:58;;;;;;;70.97;32.28;;;;;;;0.53;94.30;100404.09;5110807;28;20054;-82
2020/12/01 02:03:36;;;;;;;65.05;30.60;;;;;;;0.52;93.55;100411.94;5093113;28;20096;-80
2020/12/01 02:06:06;;;;;;;68.22;31.33;;;;;;;0.50;93.49;100409.31;5101383;28;20067;-77
2020/12/01 02:08:33;;;;;;;68.43;32.20;;;;;;;0.50;93.90;100404.13;5091597;28;20048;-77
2020/12/01 02:11:00;;;;;;;71.72;32.80;;;;;;;0.49;93.69;100405.00;5082180;28;20048;-77
2020/12/01 02:13:36;;;;;;;66.68;32.33;;;;;;;0.53;94.04;100400.63;5077807;28;20131;-81
2020/12/01 02:16:03;;;;;;;65.70;30.70;;;;;;;0.51;94.10;100387.63;5072665;28;20048;-78
2020/12/01 02:18:35;;;;;;;66.47;30.98;;;;;;;0.49;93.73;100398.91;5081420;28;20147;-78
2020/12/01 02:21:22;;;;;;;72.80;32.55;;;;;;;0.49;93.76;100391.09;5092103;28;20054;-76
2020/12/01 02:23:49;;;;;;;68.75;32.08;;;;;;;0.47;93.70;100398.94;5080712;28;20052;-78
2020/12/01 02:26:15;;;;;;;70.25;32.65;;;;;;;0.51;94.44;100386.75;5081272;28;20045;-81
2020/12/01 02:28:41;;;;;;;62.95;29.23;;;;;;;0.63;94.22;100378.88;5090878;28;20048;-78
2020/12/01 02:31:08;;;;;;;64.85;31.23;;;;;;;0.60;94.07;100377.16;5089757;28;20048;-78
2020/12/01 02:33:34;;;;;;;63.33;31.67;;;;;;;0.55;94.00;100371.09;5095686;28;20053;-79
2020/12/01 02:36:01;;;;;;;70.90;31.77;;;;;;;0.56;94.03;100372.81;5097842;28;20041;-84
2020/12/01 02:38:27;;;;;;;69.65;31.88;;;;;;;0.58;94.46;100370.22;5084998;28;20152;-80
2020/12/01 02:40:53;;;;;;;73.50;33.13;;;;;;;0.59;94.72;100364.13;5092493;28;20520;-79
2020/12/01 02:43:20;;;;;;;67.93;31.50;;;;;;;0.55;94.19;100349.38;5104288;28;20104;-78
2020/12/01 02:45:46;;;;;;;67.90;31.17;;;;;;;0.56;94.08;100345.91;5100983;28;20479;-76
2020/12/01 02:48:13;;;;;;;63.65;31.55;;;;;;;0.60;94.29;100347.63;5080565;28;20059;-77
2020/12/01 02:50:40;;;;;;;65.15;32.10;;;;;;;0.58;94.00;100349.38;5085424;28;20060;-78
2020/12/01 02:53:12;;;;;;;63.25;31.05;;;;;;;0.58;94.10;100351.97;5089035;28;20059;-80
2020/12/01 02:55:38;;;;;;;63.72;30.13;;;;;;;0.61;94.58;100338.94;5086088;28;20055;-80
2020/12/01 02:58:05;;;;;;;66.78;31.23;;;;;;;0.60;94.08;100342.41;5090412;28;20044;-77
2020/12/01 03:00:33;;;;;;;62.15;31.42;;;;;;;0.58;94.16;100337.22;5085953;28;20098;-78
2020/12/01 03:03:00;;;;;;;59.90;29.45;;;;;;;0.60;94.35;100335.47;5082903;28;20043;-76
2020/12/01 03:05:27;;;;;;;65.03;30.98;;;;;;;0.62;94.10;100327.63;5089247;28;20051;-78
2020/12/01 03:07:53;;;;;;;62.45;30.02;;;;;;;0.61;94.59;100315.47;5085133;28;20067;-80
2020/12/01 03:10:20;;;;;;;58.30;29.42;;;;;;;0.59;94.22;100314.63;5088788;28;20056;-77
2020/12/01 03:12:46;;;;;;;68.53;32.22;;;;;;;0.54;94.34;100305.97;5084918;28;20056;-78
2020/12/01 03:15:14;;;;;;;62.65;31.15;;;;;;;0.58;94.62;100312.88;5074500;28;20048;-77
2020/12/01 03:17:41;;;;;;;63.85;29.83;;;;;;;0.62;94.55;100312.84;5083254;28;20048;-78
2020/12/01 03:20:08;;;;;;;62.08;29.98;;;;;;;0.62;94.55;100304.19;5084641;28;20044;-77
2020/12/01 03:22:34;;;;;;;68.15;31.05;;;;;;;0.62;94.65;100298.97;5091698;28;20060;-78
2020/12/01 03:25:02;;;;;;;63.40;30.67;;;;;;;0.65;94.19;100306.72;5082752;28;20350;-78
2020/12/01 03:27:28;;;;;;;62.53;31.20;;;;;;;0.67;94.18;100302.38;5075792;28;20979;-79
2020/12/01 03:29:55;;;;;;;64.50;32.75;;;;;;;0.68;94.25;100296.28;5081096;28;20048;-77
2020/12/01 03:32:23;;;;;;;64.40;31.55;;;;;;;0.65;94.15;100298.91;5081255;28;20052;-76
2020/12/01 03:34:50;;;;;;;63.22;30.95;;;;;;;0.66;94.55;100308.47;5076829;28;20048;-78
2020/12/01 03:37:16;;;;;;;62.95;29.90;;;;;;;0.65;94.42;100298.91;5078039;28;20048;-77
2020/12/01 03:39:43;;;;;;;60.25;29.83;;;;;;;0.63;94.63;100306.75;5087115;28;20085;-79
2020/12/01 03:42:09;;;;;;;63.55;30.85;;;;;;;0.65;94.59;100293.69;5095827;28;20047;-80
2020/12/01 03:44:36;;;;;;;60.58;29.88;;;;;;;0.72;94.78;100299.75;5079578;28;20101;-77
2020/12/01 03:47:02;;;;;;;57.75;29.65;;;;;;;0.71;94.29;100293.66;5078817;28;20058;-77
2020/12/01 03:49:29;;;;;;;58.95;29.70;;;;;;;0.66;94.13;100295.44;5082436;28;20052;-77
2020/12/01 03:51:55;;;;;;;63.42;31.08;;;;;;;0.68;94.21;100288.47;5081392;28;20048;-78
2020/12/01 03:54:21;;;;;;;58.95;29.77;;;;;;;0.74;94.76;100280.63;5083672;28;20431;-78
2020/12/01 03:56:48;;;;;;;57.28;29.15;;;;;;;0.77;94.48;100271.91;5088419;28;20040;-81
2020/12/01 03:59:14;;;;;;;57.78;27.92;;;;;;;0.82;94.66;100263.16;5094177;28;20108;-82
2020/12/01 04:01:40;;;;;;;60.88;28.85;;;;;;;0.84;94.19;100266.59;5089072;28;20054;-78
2020/12/01 04:04:07;;;;;;;57.25;28.90;;;;;;;0.86;93.80;100271.81;5081647;28;20048;-80
2020/12/01 04:06:33;;;;;;;58.05;29.23;;;;;;;0.82;94.09;100268.34;5077155;28;20059;-77
2020/12/01 04:09:00;;;;;;;54.20;26.42;;;;;;;0.78;93.85;100271.03;5080652;28;20128;-77
2020/12/01 04:11:26;;;;;;;53.75;27.63;;;;;;;0.74;93.76;100270.19;5075312;28;20253;-78
2020/12/01 04:13:52;;;;;;;54.63;28.98;;;;;;;0.71;94.15;100265.00;5071964;28;20047;-78
2020/12/01 04:16:19;;;;;;;61.60;29.30;;;;;;;0.67;94.33;100269.38;5083729;28;20040;-77
2020/12/01 04:18:45;;;;;;;57.97;28.42;;;;;;;0.70;94.28;100273.69;5085702;28;20048;-80
2020/12/01 04:21:11;;;;;;;59.70;29.65;;;;;;;0.71;94.49;100272.81;5087574;28;20048;-78
2020/12/01 04:23:38;;;;;;;57.80;28.52;;;;;;;0.68;94.51;100270.22;5089295;28;20048;-79
2020/12/01 04:26:04;;;;;;;60.97;28.65;;;;;;;0.65;94.68;100259.81;5079426;28;20071;-78
2020/12/01 04:28:30;;;;;;;55.85;28.45;;;;;;;0.70;94.60;100263.25;5074785;28;20145;-78
2020/12/01 04:30:57;;;;;;;59.20;28.85;;;;;;;0.69;94.64;100267.63;5083718;28;20052;-78
2020/12/01 04:33:23;;;;;;;57.88;28.25;;;;;;;0.69;94.75;100270.22;5095733;28;20116;-79
2020/12/01 04:35:50;;;;;;;57.10;28.25;;;;;;;0.69;94.76;100259.78;5095883;28;20463;-77
2020/12/01 04:38:16;;;;;;;56.42;28.75;;;;;;;0.74;94.82;100259.75;5082505;28;20067;-78
2020/12/01 04:40:44;;;;;;;57.30;29.13;;;;;;;0.74;95.16;100251.94;5090395;28;20055;-78
2020/12/01 04:43:54;;;;;;;53.55;28.73;;;;;;;0.73;95.07;100249.34;5099140;28;20062;-79
2020/12/01 04:46:26;;;;;;;58.22;28.40;;;;;;;0.72;94.99;100250.22;5093220;28;20079;-79
2020/12/01 04:48:56;;;;;;;56.80;27.95;;;;;;;0.72;95.15;100245.00;5093967;28;20045;-78
2020/12/01 04:51:43;;;;;;;55.92;27.70;;;;;;;0.76;94.82;100250.19;5092737;28;20062;-79
2020/12/01 04:54:54;;;;;;;54.35;28.70;;;;;;;0.72;94.89;100243.28;5090711;28;20086;-78
2020/12/01 04:57:35;;;;;;;55.00;28.70;;;;;;;0.75;94.48;100245.84;5092132;28;20107;-77
2020/12/01 05:00:32;;;;;;;57.45;28.67;;;;;;;0.87;94.75;100247.47;5096645;28;20063;-79
2020/12/01 05:03:07;;;;;;;54.95;27.65;;;;;;;0.87;94.99;100243.13;5090142;28;20055;-78
2020/12/01 05:09:01;;;;;;;56.72;27.77;;;;;;;0.80;94.30;100246.66;5080405;28;20083;-78
2020/12/01 05:11:36;;;;;;;57.88;28.98;;;;;;;0.84;94.55;100242.28;5082293;28;20044;-80
2020/12/01 05:14:15;;;;;;;56.38;29.13;;;;;;;0.89;94.52;100227.47;5090783;28;20698;-79
2020/12/01 05:17:06;;;;;;;64.43;30.50;;;;;;;0.87;94.60;100227.47;5085808;28;20071;-78
2020/12/01 05:19:46;;;;;;;62.97;30.77;;;;;;;0.89;94.55;100230.94;5077181;28;20044;-78
2020/12/01 05:22:15;;;;;;;62.58;30.15;;;;;;;0.87;93.98;100237.91;5082811;28;20050;-79
2020/12/01 05:24:47;;;;;;;56.05;29.35;;;;;;;0.84;93.77;100243.16;5091724;28;20055;-79
2020/12/01 05:27:32;;;;;;;62.58;30.95;;;;;;;0.93;94.21;100252.63;5092974;28;20048;-78
2020/12/01 05:30:01;;;;;;;62.00;29.92;;;;;;;0.97;94.24;100260.38;5109381;28;20064;-77
2020/12/01 05:32:35;;;;;;;57.03;29.15;;;;;;;0.97;93.99;100255.16;5089838;28;20048;-76
2020/12/01 05:35:25;;;;;;;64.80;31.40;;;;;;;0.92;94.10;100254.38;5087591;28;20055;-76
2020/12/01 05:38:00;;;;;;;62.00;30.92;;;;;;;0.88;94.09;100249.19;5075885;28;20140;-77
2020/12/01 05:40:31;;;;;;;63.92;30.75;;;;;;;0.88;93.99;100260.50;5082144;28;20058;-76
2020/12/01 05:42:58;;;;;;;67.47;31.30;;;;;;;0.87;94.14;100257.91;5085916;28;20155;-78
2020/12/01 05:45:27;;;;;;;62.05;29.85;;;;;;;0.93;94.49;100258.72;5102574;28;20048;-78
2020/12/01 05:48:13;;;;;;;60.05;29.95;;;;;;;0.92;94.69;100258.72;5099220;28;20104;-77
2020/12/01 05:51:15;;;;;;;65.05;30.42;;;;;;;0.94;94.38;100249.16;5103638;28;20135;-83
2020/12/01 05:53:42;;;;;;;59.22;30.25;;;;;;;0.98;95.04;100246.47;5087298;28;20069;-78
2020/12/01 05:56:20;;;;;;;61.50;29.92;;;;;;;0.95;94.29;100243.88;5092070;28;20044;-78
2020/12/01 05:59:02;;;;;;;59.63;29.83;;;;;;;0.92;94.38;100243.94;5103119;28;20113;-76
2020/12/01 06:01:40;;;;;;;59.03;29.58;;;;;;;0.90;94.50;100247.44;5086709;28;20052;-79
2020/12/01 06:04:11;;;;;;;62.15;29.95;;;;;;;0.90;94.59;100242.22;5084623;28;20068;-78
2020/12/01 06:06:50;;;;;;;64.68;29.25;;;;;;;0.96;94.50;100243.00;5086262;28;20062;-80
2020/12/01 06:09:38;;;;;;;60.25;29.55;;;;;;;0.97;94.79;100242.13;5096771;28;20112;-77
2020/12/01 06:12:18;;;;;;;62.58;28.63;;;;;;;1.01;94.61;100250.78;5105195;28;20051;-77
2020/12/01 06:15:15;;;;;;;61.17;29.65;;;;;;;1.02;94.85;100258.59;5093128;28;20044;-78
2020/12/01 06:18:05;;;;;;;60.25;28.75;;;;;;;1.03;94.84;100265.56;5080491;28;20044;-77
2020/12/01 06:20:40;;;;;;;58.53;28.52;;;;;;;1.02;94.75;100262.94;5091139;28;20143;-76
2020/12/01 06:23:29;;;;;;;56.70;28.05;;;;;;;1.03;94.96;100264.69;5088214;28;20048;-77
2020/12/01 06:26:34;;;;;;;62.55;28.70;;;;;;;0.99;94.91;100256.03;5085885;28;20040;-77
2020/12/01 06:29:48;;;;;;;60.45;28.08;;;;;;;1.00;95.01;100256.88;5078573;28;20155;-76
2020/12/01 06:32:36;;;;;;;57.30;27.30;;;;;;;1.02;95.10;100258.59;5098150;28;20048;-82
2020/12/01 06:35:31;;;;;;;57.38;28.15;;;;;;;1.03;94.67;100260.34;5102372;28;20043;-79
2020/12/01 06:38:13;;;;;;;54.83;27.08;;;;;;;1.03;94.53;100256.88;5107974;28;20047;-78
2020/12/01 06:40:46;;;;;;;55.85;27.05;;;;;;;0.99;94.67;100261.22;5109083;28;20043;-82
2020/12/01 06:43:17;;;;;;;54.92;28.75;;;;;;;0.98;95.10;100262.13;5107572;28;20100;-78
2020/12/01 06:45:47;;;;;;;60.40;28.95;;;;;;;1.02;95.12;100271.63;5110563;28;20060;-79
2020/12/01 06:48:25;;;;;;;59.97;28.70;;;;;;;1.11;94.95;100261.97;5108684;28;20119;-76
2020/12/01 06:50:59;;;;;;;54.50;27.10;;;;;;;1.13;94.60;100257.63;5088066;28;20048;-78
2020/12/01 06:53:34;;;;;;;55.50;27.15;;;;;;;1.14;94.64;100256.75;5087780;28;20052;-80
2020/12/01 06:56:18;;;;;;;51.20;25.40;;;;;;;1.15;94.70;100268.91;5094469;28;20062;-78
2020/12/01 06:58:49;;;;;;;57.03;27.15;;;;;;;1.10;94.30;100271.56;5101191;28;20028;-77
2020/12/01 07:01:22;;;;;;;54.10;29.02;;;;;;;1.11;94.32;100273.28;5112456;28;20128;-81
2020/12/01 07:04:11;;;;;;;53.78;27.08;;;;;;;1.09;94.67;100272.47;5109964;28;20067;-82
2020/12/01 07:06:50;;;;;;;58.20;27.75;;;;;;;1.09;94.49;100274.19;5101390;28;20079;-78
2020/12/01 07:09:24;;;;;;;53.17;26.60;;;;;;;1.10;94.47;100271.56;5087567;28;20084;-78
2020/12/01 07:11:59;;;;;;;56.40;28.05;;;;;;;1.15;94.98;100279.31;5086984;28;20051;-78
2020/12/01 07:14:34;;;;;;;56.55;27.83;;;;;;;1.14;94.85;100282.81;5084105;28;20044;-77
2020/12/01 07:17:12;;;;;;;53.45;27.67;;;;;;;1.12;94.65;100275.00;5090446;28;20040;-80
2020/12/01 07:19:49;;;;;;;51.10;27.85;;;;;;;1.13;94.92;100273.25;5087284;28;21469;-79
2020/12/01 07:22:41;;;;;;;59.50;27.95;;;;;;;1.17;94.41;100277.56;5090935;28;20047;-78
2020/12/01 07:25:08;;;;;;;50.67;26.10;;;;;;;1.14;94.59;100281.06;5094498;28;20143;-78
2020/12/01 07:27:57;;;;;;;54.13;27.10;;;;;;;1.24;94.73;100293.16;5102679;28;20047;-78
2020/12/01 07:30:27;;;;;;;57.08;26.58;;;;;;;1.26;94.69;100291.38;5099817;28;20056;-80
2020/12/01 07:32:57;;;;;;;52.95;25.73;;;;;;;1.26;94.46;100290.53;5103009;28;20060;-78
2020/12/01 07:35:44;;;;;;;49.05;25.50;;;;;;;1.29;94.03;100300.91;5096956;28;20062;-79
2020/12/01 07:38:29;;;;;;;49.53;25.77;;;;;;;1.31;93.99;100296.53;5089023;28;20475;-78
2020/12/01 07:41:30;;;;;;;45.00;24.58;;;;;;;1.35;93.60;100295.63;5091874;28;20470;-79
2020/12/01 07:44:03;;;;;;;53.33;25.92;;;;;;;1.37;93.68;100291.28;5085331;28;20054;-78
2020/12/01 07:46:39;;;;;;;52.15;27.02;;;;;;;1.35;93.68;100300.84;5085261;28;20044;-78
2020/12/01 07:49:08;;;;;;;50.38;26.65;;;;;;;1.28;93.58;100292.22;5096026;28;20475;-80
2020/12/01 07:51:35;;;;;;;52.40;26.42;;;;;;;1.28;93.68;100291.34;5090325;28;20044;-79
2020/12/01 07:54:05;;;;;;;55.42;27.75;;;;;;;1.30;94.25;100286.97;5091733;28;20083;-78
2020/12/01 07:56:31;;;;;;;58.55;26.67;;;;;;;1.34;94.33;100293.91;5089932;28;20059;-78
2020/12/01 07:59:01;;;;;;;49.75;26.85;;;;;;;1.37;94.05;100291.28;5097651;28;20435;-79
2020/12/01 08:01:27;;;;;;;54.92;28.00;;;;;;;1.36;94.26;100289.53;5095867;28;20135;-79
2020/12/01 08:04:27;;;;;;;54.63;26.58;;;;;;;1.30;94.30;100281.78;5086929;28;20103;-80
2020/12/01 08:07:04;;;;;;;55.45;25.77;;;;;;;1.37;93.78;100293.88;5085307;28;20096;-81
2020/12/01 08:09:44;;;;;;;48.40;25.40;;;;;;;1.42;93.92;100299.88;5101439;28;20028;-78
2020/12/01 08:12:15;;;;;;;51.08;26.83;;;;;;;1.42;93.92;100299.06;5096002;28;20491;-79
2020/12/01 08:14:52;;;;;;;56.42;26.73;;;;;;;1.40;93.39;100301.69;5096631;28;20040;-78
2020/12/01 08:17:27;;;;;;;49.17;25.83;;;;;;;1.42;93.63;100303.38;5079740;28;20557;-77
2020/12/01 08:19:54;;;;;;;48.13;25.42;;;;;;;1.45;93.40;100296.38;5084710;28;20404;-78
2020/12/01 08:22:31;;;;;;;52.00;26.80;;;;;;;1.46;93.46;100303.34;5089202;28;20052;-77
2020/12/01 08:25:01;;;;;;;51.20;25.42;;;;;;;1.49;93.36;100305.91;5085262;28;20476;-79
2020/12/01 08:27:57;;;;;;;37.63;19.77;;;;;;;1.41;93.35;100298.19;5084578;28;20091;-81
2020/12/01 08:30:32;;;;;;;57.90;26.05;;;;;;;1.48;93.96;100304.19;5085867;28;20051;-79
2020/12/01 08:33:19;;;;;;;49.30;26.20;;;;;;;1.43;93.49;100299.00;5092542;28;20056;-80
2020/12/01 08:36:01;;;;;;;53.50;27.38;;;;;;;1.42;93.57;100301.66;5085480;28;20719;-78
2020/12/01 08:38:44;;;;;;;50.42;26.60;;;;;;;1.52;93.86;100306.75;5078951;28;20044;-78
2020/12/01 08:41:19;;;;;;;50.50;27.30;;;;;;;1.55;93.66;100301.50;5082437;28;20062;-79
2020/12/01 08:43:51;;;;;;;51.08;26.10;;;;;;;1.62;93.80;100308.34;5092470;28;20130;-83
2020/12/01 08:46:26;;;;;;;55.90;26.85;;;;;;;1.66;93.54;100309.19;5099011;28;20056;-79
2020/12/01 08:49:22;;;;;;;53.47;27.75;;;;;;;1.62;93.17;100313.56;5092585;28;20080;-78
2020/12/01 08:52:00;;;;;;;55.33;28.58;;;;;;;1.63;93.85;100317.91;5090175;28;20143;-78
2020/12/01 08:54:33;;;;;;;56.25;27.13;;;;;;;1.63;93.44;100319.66;5076565;28;20049;-78
2020/12/01 08:57:06;;;;;;;51.60;26.58;;;;;;;1.62;93.47;100317.94;5086829;28;20472;-78
2020/12/01 08:59:38;;;;;;;52.00;26.35;;;;;;;1.67;92.86;100331.81;5091144;28;20103;-78
2020/12/01 09:02:08;;;;;;;51.78;27.63;;;;;;;1.65;93.57;100317.91;5075446;28;20049;-79
2020/12/01 09:04:36;;;;;;;53.40;26.75;;;;;;;1.72;93.09;100322.19;5093719;28;20051;-78
2020/12/01 09:07:27;;;;;;;50.85;25.27;;;;;;;1.71;92.82;100331.75;5089180;28;20048;-79
2020/12/01 09:10:07;;;;;;;;;;;;;;;1.66;92.45;100336.16;5093151;28;20394;-80
2020/12/01 09:12:54;;;;;;;51.63;25.90;;;;;;;1.58;92.24;100335.38;5090441;28;19927;-78
2020/12/01 09:18:23;;;;;;;50.00;25.48;;;;;;;1.62;93.08;100330.97;5096203;28;20052;-77
2020/12/01 09:23:32;;;;;;;;;;;;;;;1.85;92.83;100334.19;5108106;28;20097;-77
2020/12/01 09:26:02;;;;;;;49.13;24.77;;;;;;;1.86;92.66;100332.44;5099173;28;20015;-77
2020/12/01 09:28:31;;;;;;;52.85;26.65;;;;;;;1.82;92.18;100331.63;5096728;28;20055;-79
2020/12/01 09:31:03;;;;;;;51.30;26.13;;;;;;;1.77;92.20;100328.19;5106334;28;20115;-78
2020/12/01 09:34:02;;;;;;;52.25;27.48;;;;;;;1.77;92.57;100336.88;5107404;28;20048;-77
2020/12/01 09:36:29;;;;;;;51.78;27.70;;;;;;;1.71;92.27;100339.59;5099792;28;20130;-77
2020/12/01 09:38:56;;;;;;;53.20;26.00;;;;;;;1.75;92.29;100336.03;5101698;28;20041;-78
2020/12/01 09:41:24;;;;;;;46.45;24.73;;;;;;;1.81;92.25;100323.78;5106277;28;20048;-78
2020/12/01 09:44:05;;;;;;;47.50;25.80;;;;;;;1.89;92.28;100333.25;5109430;28;20072;-77
2020/12/01 09:46:44;;;;;;;48.33;25.40;;;;;;;1.92;92.02;100342.78;5081972;28;20104;-77
2020/12/01 09:49:10;;;;;;;44.47;25.33;;;;;;;1.92;91.35;100343.66;5087608;28;20571;-79
2020/12/01 09:51:37;;;;;;;47.05;25.70;;;;;;;1.89;91.47;100343.69;5087988;28;20121;-78
2020/12/01 09:54:50;;;;;;;51.70;27.27;;;;;;;1.93;91.48;100347.13;5084116;28;20132;-79
2020/12/01 09:57:03;;;;;;;47.78;26.38;;;;;;;1.93;91.92;100334.06;5090123;28;20075;-80
2020/12/01 09:59:41;;;;;;;50.05;27.83;;;;;;;1.97;91.60;100347.09;5082988;28;20064;-80
2020/12/01 10:08:18;;;;;;;47.72;25.42;;;;;;;2.26;91.26;100338.00;5089913;28;20168;-78
2020/12/01 10:13:41;;;;;;;47.95;26.67;;;;;;;2.31;90.47;100336.19;5068297;28;20052;-78
2020/12/01 10:37:52;;;;;;;52.78;28.02;;;;;;;2.34;90.00;100346.59;5091756;28;20048;-78
2020/12/01 10:40:18;;;;;;;;;;;;;;;2.33;90.46;100353.56;5084709;28;20609;-78
2020/12/01 10:42:46;;;;;;;50.00;26.48;;;;;;;2.33;90.32;100350.97;5086768;28;19926;-76
2020/12/01 10:45:15;;;;;;;55.97;27.13;;;;;;;2.33;89.74;100347.47;5087898;28;20075;-78
2020/12/01 10:47:42;;;;;;;53.88;28.20;;;;;;;2.28;89.64;100355.38;5085124;28;20056;-77
2020/12/01 10:50:08;;;;;;;57.33;28.02;;;;;;;2.25;89.86;100357.16;5092550;28;20483;-78
2020/12/01 10:52:35;;;;;;;51.78;28.02;;;;;;;2.17;89.93;100357.28;5081756;28;20064;-82
2020/12/01 10:55:04;;;;;;;51.72;27.60;;;;;;;2.12;90.16;100366.91;5092001;28;20056;-78
2020/12/01 10:57:30;;;;;;;52.75;27.35;;;;;;;2.12;90.80;100364.31;5094368;28;20058;-78
2020/12/01 10:59:57;;;;;;;56.30;29.17;;;;;;;2.14;90.98;100364.28;5082672;28;20086;-77
2020/12/01 11:02:28;;;;;;;56.50;28.00;;;;;;;2.13;90.96;100366.03;5090867;28;20075;-80
2020/12/01 11:04:55;;;;;;;56.33;29.15;;;;;;;2.08;90.96;100362.59;5093163;28;20041;-78
2020/12/01 11:07:21;;;;;;;59.25;30.33;;;;;;;2.11;90.54;100373.03;5112011;28;20107;-77
2020/12/01 11:09:47;;;;;;;59.88;29.80;;;;;;;2.18;91.21;100366.84;5099260;28;20112;-78
2020/12/01 11:12:14;;;;;;;58.70;29.73;;;;;;;2.23;91.37;100369.38;5104226;28;20555;-80
2020/12/01 11:14:42;;;;;;;58.80;28.48;;;;;;;2.35;91.10;100371.84;5093748;28;20078;-77
2020/12/01 11:17:09;;;;;;;59.13;29.10;;;;;;;2.37;91.00;100368.28;5094496;28;20068;-76
2020/12/01 11:19:37;;;;;;;58.42;29.40;;;;;;;2.40;90.80;100357.81;5085830;28;20509;-76
2020/12/01 11:22:03;;;;;;;60.03;28.20;;;;;;;2.42;90.16;100369.09;5091938;28;20178;-78
2020/12/01 11:24:29;;;;;;;61.00;29.58;;;;;;;2.39;90.12;100363.91;5089581;28;20469;-76
2020/12/01 11:26:56;;;;;;;56.25;28.73;;;;;;;2.38;90.08;100364.81;5087239;28;20062;-78
2020/12/01 11:29:22;;;;;;;56.85;29.10;;;;;;;2.36;90.32;100360.50;5084810;28;20044;-79
2020/12/01 11:31:50;;;;;;;56.20;28.30;;;;;;;2.35;90.67;100362.25;5088192;28;20048;-77
2020/12/01 11:34:16;;;;;;;50.83;26.65;;;;;;;2.43;90.27;100363.00;5087270;28;20040;-77
2020/12/01 11:36:44;;;;;;;54.88;28.67;;;;;;;2.41;90.43;100361.28;5094038;28;20055;-78
2020/12/01 11:39:13;;;;;;;53.97;28.65;;;;;;;2.54;90.76;100372.41;5087376;28;20055;-79
2020/12/01 11:41:41;;;;;;;51.10;27.17;;;;;;;2.66;89.99;100370.50;5091593;28;20071;-77
2020/12/01 11:44:11;;;;;;;50.47;27.10;;;;;;;2.74;89.12;100375.59;5090317;28;20212;-78
2020/12/01 11:46:39;;;;;;;51.58;25.63;;;;;;;2.71;88.86;100376.50;5087249;28;20060;-81
2020/12/01 11:49:05;;;;;;;51.13;26.27;;;;;;;2.69;88.89;100375.66;5105203;28;20028;-79
2020/12/01 11:51:34;;;;;;;50.25;26.23;;;;;;;2.66;88.83;100377.50;5108874;28;20067;-80
2020/12/01 11:54:01;;;;;;;48.65;25.55;;;;;;;2.66;89.27;100380.09;5085009;28;20136;-76
2020/12/01 11:56:28;;;;;;;47.17;25.60;;;;;;;2.69;89.40;100380.03;5092514;28;20407;-77
2020/12/01 11:58:55;;;;;;;49.95;26.42;;;;;;;2.70;89.13;100371.31;5092152;28;20168;-77
2020/12/01 12:01:21;;;;;;;45.55;26.05;;;;;;;2.75;89.48;100379.94;5086910;28;20063;-80
2020/12/01 12:03:48;;;;;;;50.55;25.67;;;;;;;2.75;88.97;100382.56;5107088;28;20048;-78
2020/12/01 12:06:15;;;;;;;47.90;25.75;;;;;;;2.74;88.83;100383.44;5109528;28;20056;-79
2020/12/01 12:08:41;;;;;;;49.28;25.38;;;;;;;2.62;89.13;100378.41;5113382;28;20104;-77
2020/12/01 12:11:08;;;;;;;50.88;26.42;;;;;;;2.58;89.32;100382.81;5083474;28;20121;-76
2020/12/01 12:13:34;;;;;;;49.58;27.08;;;;;;;2.55;89.16;100384.59;5095884;28;20048;-76
2020/12/01 12:16:01;;;;;;;52.15;27.42;;;;;;;2.47;89.53;100387.34;5093527;28;20040;-77
2020/12/01 12:18:28;;;;;;;52.38;26.45;;;;;;;2.42;90.08;100394.38;5086779;28;20056;-77